Kempsey, United Kingdom
Current Conditions -  °F | °C
As of 6:50 PM on Thursday 20 Nov 2014 (Local Time) from EGBJ Reporting Station
Scattered Clouds Scattered Clouds  
Wind Chill: 46°   Ceiling: Unl
Heat Index: 46°   Visibility: 4mi
Dew Point: 45°   Wind: 0mph
Humidity: 93%   Direction: NA
Pressure: 30.24"   Gusts: NA
Location:  52.14°N, 2.22°W
Report Text: EGBJ 201850Z 00000KT 6000 FEW012 SCT018 08/07 Q1024
Loading
Personal Weather Stations






























Interactive Weather Map New forecast layout! Learn more

10-Day Weather Forecast

Advertisements
Track Severe Weather on mobile